createdAt,value
2023-03-12T00:02:10.999Z,-0.80
2023-03-12T00:04:52.917Z,-0.79
2023-03-12T00:07:20.964Z,-0.78
2023-03-12T00:09:49.313Z,-0.77
2023-03-12T00:12:18.132Z,-0.77
2023-03-12T00:14:48.866Z,-0.76
2023-03-12T00:17:37.658Z,-0.76
2023-03-12T00:20:07.227Z,-0.76
2023-03-12T00:22:55.982Z,-0.75
2023-03-12T00:25:24.631Z,-0.74
2023-03-12T00:27:52.898Z,-0.74
2023-03-12T00:30:21.477Z,-0.74
2023-03-12T00:32:49.683Z,-0.72
2023-03-12T00:35:33.151Z,-0.72
2023-03-12T00:38:13.794Z,-0.73
2023-03-12T00:41:12.934Z,-0.73
2023-03-12T00:44:08.737Z,-0.73
2023-03-12T00:47:02.708Z,-0.72
2023-03-12T00:49:33.865Z,-0.71
2023-03-12T00:52:02.768Z,-0.71
2023-03-12T00:54:54.484Z,-0.71
2023-03-12T00:57:25.710Z,-0.72
2023-03-12T00:59:53.838Z,-0.72
2023-03-12T01:02:42.999Z,-0.73
2023-03-12T01:05:15.990Z,-0.75
2023-03-12T01:08:04.737Z,-0.74
2023-03-12T01:10:33.430Z,-0.74
2023-03-12T01:13:01.599Z,-0.76
2023-03-12T01:15:30.661Z,-0.76
2023-03-12T01:18:01.716Z,-0.78
2023-03-12T01:20:53.725Z,-0.80
2023-03-12T01:23:21.916Z,-0.82
2023-03-12T01:25:51.944Z,-0.85
2023-03-12T01:28:20.183Z,-0.88
2023-03-12T01:30:51.564Z,-0.93
2023-03-12T01:33:26.432Z,-0.99
2023-03-12T01:35:54.678Z,-1.04
2023-03-12T01:38:35.378Z,-1.08
2023-03-12T01:41:05.813Z,-1.11
2023-03-12T01:43:47.390Z,-1.15
2023-03-12T01:46:27.655Z,-1.18
2023-03-12T01:49:29.928Z,-1.20
2023-03-12T01:52:10.576Z,-1.20
2023-03-12T01:55:13.079Z,-1.20
2023-03-12T01:57:55.535Z,-1.20
2023-03-12T02:00:31.716Z,-1.19
2023-03-12T02:03:18.031Z,-1.17
2023-03-12T02:06:14.673Z,-1.16
2023-03-12T02:08:47.655Z,-1.15
2023-03-12T02:11:19.445Z,-1.14
2023-03-12T02:13:53.019Z,-1.14
2023-03-12T02:16:48.135Z,-1.15
2023-03-12T02:20:22.212Z,-1.18
2023-03-12T02:23:22.736Z,-1.24
2023-03-12T02:25:56.566Z,-1.29
2023-03-12T02:28:29.002Z,-1.35
2023-03-12T02:31:06.922Z,-1.40
2023-03-12T02:33:35.571Z,-1.46
2023-03-12T02:36:18.994Z,-1.51
2023-03-12T02:38:56.263Z,-1.56
2023-03-12T02:41:58.637Z,-1.63
2023-03-12T02:44:53.673Z,-1.69
2023-03-12T02:47:25.196Z,-1.74
2023-03-12T02:49:59.208Z,-1.79
2023-03-12T02:52:35.676Z,-1.83
2023-03-12T02:55:08.813Z,-1.86
2023-03-12T02:57:44.404Z,-1.88
2023-03-12T03:00:38.531Z,-1.91
2023-03-12T03:03:26.409Z,-1.94
2023-03-12T03:06:15.293Z,-1.98
2023-03-12T03:09:09.932Z,-2.02
2023-03-12T03:11:43.404Z,-2.04
2023-03-12T03:14:11.896Z,-2.06
2023-03-12T03:16:40.776Z,-2.08
2023-03-12T03:19:14.132Z,-2.09
2023-03-12T03:22:14.129Z,-2.11
2023-03-12T03:24:45.458Z,-2.14
2023-03-12T03:27:16.749Z,-2.17
2023-03-12T03:29:52.698Z,-2.19
2023-03-12T03:32:43.925Z,-2.24
2023-03-12T03:35:22.837Z,-2.27
2023-03-12T03:37:51.553Z,-2.32
2023-03-12T03:40:28.668Z,-2.34
2023-03-12T03:43:38.704Z,-2.38
2023-03-12T03:46:08.250Z,-2.42
2023-03-12T03:48:59.154Z,-2.46
2023-03-12T03:51:52.413Z,-2.49
2023-03-12T03:54:28.228Z,-2.52
2023-03-12T03:57:39.974Z,-2.54
2023-03-12T04:00:36.207Z,-2.56
2023-03-12T04:03:08.633Z,-2.58
2023-03-12T04:06:13.070Z,-2.60
2023-03-12T04:08:57.432Z,-2.63
2023-03-12T04:11:27.986Z,-2.64
2023-03-12T04:13:58.729Z,-2.64
2023-03-12T04:16:48.869Z,-2.64
2023-03-12T04:19:46.021Z,-2.64
2023-03-12T04:22:14.794Z,-2.63
2023-03-12T04:25:14.388Z,-2.63
2023-03-12T04:27:43.108Z,-2.63
2023-03-12T04:30:54.753Z,-2.63
2023-03-12T04:33:57.129Z,-2.64
2023-03-12T04:36:52.348Z,-2.64
2023-03-12T04:40:05.280Z,-2.64
2023-03-12T04:42:50.545Z,-2.63
2023-03-12T04:45:20.091Z,-2.63
2023-03-12T04:47:51.978Z,-2.63
2023-03-12T04:50:47.818Z,-2.62
2023-03-12T04:53:19.927Z,-2.61
2023-03-12T04:56:01.302Z,-2.60
2023-03-12T04:58:50.266Z,-2.59
2023-03-12T05:01:38.885Z,-2.60
2023-03-12T05:04:50.300Z,-2.63
2023-03-12T05:07:38.726Z,-2.66
2023-03-12T05:10:07.825Z,-2.67
2023-03-12T05:12:36.113Z,-2.68
2023-03-12T05:15:07.434Z,-2.69
2023-03-12T05:17:56.129Z,-2.69
2023-03-12T05:20:24.789Z,-2.66
2023-03-12T05:22:53.590Z,-2.62
2023-03-12T05:25:22.513Z,-2.62
2023-03-12T05:28:04.423Z,-2.62
2023-03-12T05:30:56.344Z,-2.63
2023-03-12T05:33:26.305Z,-2.64
2023-03-12T05:35:54.788Z,-2.66
2023-03-12T05:38:26.940Z,-2.67
2023-03-12T05:40:59.232Z,-2.69
2023-03-12T05:43:29.175Z,-2.70
2023-03-12T05:46:05.069Z,-2.68
2023-03-12T05:48:36.815Z,-2.63
2023-03-12T05:51:05.829Z,-2.57
2023-03-12T05:53:34.645Z,-2.52
2023-03-12T05:56:08.896Z,-2.48
2023-03-12T05:58:38.217Z,-2.41
2023-03-12T06:01:33.856Z,-2.34
2023-03-12T06:04:07.255Z,-2.24
2023-03-12T06:06:56.245Z,-2.14
2023-03-12T06:09:24.618Z,-2.01
2023-03-12T06:11:57.764Z,-1.88
2023-03-12T06:14:25.839Z,-1.75
2023-03-12T06:16:58.667Z,-1.63
2023-03-12T06:19:26.733Z,-1.53
2023-03-12T06:22:00.833Z,-1.45
2023-03-12T06:24:29.316Z,-1.39
2023-03-12T06:27:20.453Z,-1.31
2023-03-12T06:29:48.900Z,-1.24
2023-03-12T06:32:22.180Z,-1.18
2023-03-12T06:34:50.720Z,-1.12
2023-03-12T06:37:29.641Z,-1.04
2023-03-12T06:39:58.308Z,-0.97
2023-03-12T06:42:40.554Z,-0.89
2023-03-12T06:45:12.274Z,-0.81
2023-03-12T06:47:40.827Z,-0.73
2023-03-12T06:50:10.437Z,-0.65
2023-03-12T06:52:40.833Z,-0.56
2023-03-12T06:55:12.405Z,-0.48
2023-03-12T06:58:04.742Z,-0.42
2023-03-12T07:00:39.161Z,-0.36
2023-03-12T07:03:11.534Z,-0.28
2023-03-12T07:06:19.510Z,-0.20
2023-03-12T07:08:49.053Z,-0.09
2023-03-12T07:11:27.931Z,0.04
2023-03-12T07:14:03.651Z,0.16
2023-03-12T07:16:32.330Z,0.28
2023-03-12T07:19:24.073Z,0.38
2023-03-12T07:21:58.077Z,0.51
2023-03-12T07:24:39.637Z,0.63
2023-03-12T07:27:11.355Z,0.74
2023-03-12T07:29:58.635Z,0.85
2023-03-12T07:33:13.261Z,0.99
2023-03-12T07:36:18.720Z,1.10
2023-03-12T07:39:08.213Z,1.18
2023-03-12T07:41:39.461Z,1.22
2023-03-12T07:45:01.119Z,1.28
2023-03-12T07:47:51.714Z,1.42
2023-03-12T07:51:03.086Z,1.49
2023-03-12T07:54:12.400Z,1.59
2023-03-12T07:56:41.022Z,1.65
2023-03-12T07:59:09.747Z,1.68
2023-03-12T08:01:43.303Z,1.72
2023-03-12T08:04:43.480Z,1.77
2023-03-12T08:07:47.758Z,1.78
2023-03-12T08:11:28.467Z,1.80
2023-03-12T08:14:12.878Z,1.83
2023-03-12T08:16:41.430Z,1.90
2023-03-12T08:19:33.690Z,1.97
2023-03-12T08:22:24.752Z,1.99
2023-03-12T08:25:05.087Z,2.00
2023-03-12T08:27:43.423Z,2.04
2023-03-12T08:30:30.470Z,2.08
2023-03-12T08:33:15.399Z,2.14
2023-03-12T08:36:06.676Z,2.25
2023-03-12T08:39:25.441Z,2.42
2023-03-12T08:42:19.183Z,2.56
2023-03-12T08:44:53.877Z,2.64
2023-03-12T08:48:06.402Z,2.71
2023-03-12T08:51:25.626Z,2.84
2023-03-12T08:54:36.917Z,3.02
2023-03-12T08:57:08.220Z,3.15
2023-03-12T08:59:50.767Z,3.24
2023-03-12T09:02:52.519Z,3.38
2023-03-12T09:05:25.541Z,3.51
2023-03-12T09:08:37.279Z,3.62
2023-03-12T09:12:31.145Z,3.82
2023-03-12T09:16:10.262Z,4.02
2023-03-12T09:19:22.740Z,4.11
2023-03-12T09:21:59.280Z,4.26
2023-03-12T09:24:45.650Z,4.37
2023-03-12T09:27:40.805Z,4.46
2023-03-12T09:30:27.319Z,4.59
2023-03-12T09:33:16.056Z,4.67
2023-03-12T09:36:16.142Z,4.74
2023-03-12T09:38:47.488Z,4.80
2023-03-12T09:41:28.623Z,4.85
2023-03-12T09:44:32.865Z,4.94
2023-03-12T09:47:10.779Z,5.01
2023-03-12T09:50:26.144Z,4.99
2023-03-12T09:53:47.930Z,5.07
2023-03-12T09:56:22.891Z,5.15
2023-03-12T09:58:55.835Z,5.21
2023-03-12T10:01:33.718Z,5.29
2023-03-12T10:04:31.011Z,5.34
2023-03-12T10:07:28.001Z,5.39
2023-03-12T10:10:50.689Z,5.47
2023-03-12T10:14:24.819Z,5.57
2023-03-12T10:17:39.088Z,5.65
2023-03-12T10:20:35.340Z,5.70
2023-03-12T10:24:14.277Z,5.85
2023-03-12T10:26:57.758Z,5.91
2023-03-12T10:29:53.226Z,5.90
2023-03-12T10:32:44.513Z,6.05
2023-03-12T10:35:24.558Z,6.26
2023-03-12T10:37:59.589Z,6.30
2023-03-12T10:40:30.227Z,6.41
2023-03-12T10:43:19.026Z,6.53
2023-03-12T10:45:59.544Z,6.67
2023-03-12T10:48:33.406Z,6.81
2023-03-12T10:51:03.772Z,7.00
2023-03-12T10:54:19.630Z,7.22
2023-03-12T10:57:06.095Z,7.40
2023-03-12T10:59:37.196Z,7.62
2023-03-12T11:03:03.806Z,7.88
2023-03-12T11:05:37.531Z,8.15
2023-03-12T11:08:32.306Z,8.35
2023-03-12T11:11:13.617Z,8.75
2023-03-12T11:13:57.182Z,9.13
2023-03-12T11:16:32.121Z,9.61
2023-03-12T11:19:42.354Z,9.91
2023-03-12T11:22:31.842Z,10.11
2023-03-12T11:25:27.388Z,10.20
2023-03-12T11:28:16.138Z,10.55
2023-03-12T11:31:07.488Z,11.06
2023-03-12T11:34:57.715Z,11.50
2023-03-12T11:37:46.940Z,12.16
2023-03-12T11:40:59.538Z,12.94
2023-03-12T11:44:23.283Z,13.40
2023-03-12T11:47:02.309Z,13.54
2023-03-12T11:50:02.198Z,13.59
2023-03-12T11:53:18.848Z,13.93
2023-03-12T11:56:03.431Z,14.48
2023-03-12T11:58:44.018Z,14.55
2023-03-12T12:01:44.573Z,14.79
2023-03-12T12:21:39.697Z,16.03
2023-03-12T12:24:29.441Z,16.19
2023-03-12T12:27:30.137Z,16.70
2023-03-12T12:30:05.415Z,17.22
2023-03-12T12:33:15.631Z,17.33
2023-03-12T12:36:04.454Z,17.42
2023-03-12T12:39:24.224Z,17.35
2023-03-12T12:42:39.214Z,17.12
2023-03-12T12:45:18.323Z,17.04
2023-03-12T12:48:12.226Z,17.29
2023-03-12T12:50:47.962Z,17.21
2023-03-12T12:54:02.967Z,17.62
2023-03-12T12:56:48.375Z,17.95
2023-03-12T12:59:28.525Z,18.31
2023-03-12T13:02:37.049Z,18.38
2023-03-12T13:05:56.285Z,18.31
2023-03-12T13:09:16.234Z,18.12
2023-03-12T13:12:14.775Z,17.92
2023-03-12T13:14:48.267Z,17.68
2023-03-12T13:17:55.316Z,17.89
2023-03-12T13:20:57.009Z,18.00
2023-03-12T13:23:33.357Z,17.82
2023-03-12T13:26:43.384Z,17.23
2023-03-12T13:29:33.297Z,16.95
2023-03-12T13:32:09.199Z,17.02
2023-03-12T13:34:46.965Z,16.68
2023-03-12T13:38:04.584Z,16.43
2023-03-12T13:41:40.389Z,16.45
2023-03-12T13:44:47.556Z,15.88
2023-03-12T13:47:55.034Z,15.90
2023-03-12T13:51:09.723Z,15.88
2023-03-12T13:54:14.654Z,16.00
2023-03-12T13:57:05.486Z,16.19
2023-03-12T14:00:02.810Z,16.39
2023-03-12T14:02:42.917Z,16.17
2023-03-12T14:05:14.982Z,15.64
2023-03-12T14:07:58.339Z,15.15
2023-03-12T14:11:03.531Z,15.18
2023-03-12T14:13:43.711Z,15.49
2023-03-12T14:16:30.868Z,15.63
2023-03-12T14:18:59.825Z,14.95
2023-03-12T14:21:36.047Z,13.92
2023-03-12T14:24:08.665Z,12.82
2023-03-12T14:27:07.453Z,11.99
2023-03-12T14:29:56.887Z,11.43
2023-03-12T14:32:52.918Z,10.76
2023-03-12T14:35:29.676Z,10.55
2023-03-12T14:38:22.225Z,10.64
2023-03-12T14:41:21.607Z,10.87
2023-03-12T14:44:02.785Z,11.01
2023-03-12T14:46:54.746Z,11.34
2023-03-12T14:50:02.659Z,11.73
2023-03-12T14:52:48.146Z,11.68
2023-03-12T14:55:50.312Z,11.33
2023-03-12T14:58:43.115Z,10.95
2023-03-12T15:01:34.604Z,10.48
2023-03-12T15:04:34.222Z,9.85
2023-03-12T15:07:17.879Z,9.18
2023-03-12T15:10:17.504Z,8.41
2023-03-12T15:13:47.539Z,7.81
2023-03-12T15:16:40.060Z,7.11
2023-03-12T15:19:28.144Z,6.74
2023-03-12T15:21:57.334Z,6.39
2023-03-12T15:24:45.756Z,6.12
2023-03-12T15:27:34.825Z,5.92
2023-03-12T15:30:46.754Z,5.81
2023-03-12T15:33:19.155Z,5.70
2023-03-12T15:36:39.296Z,5.62
2023-03-12T15:39:48.758Z,5.50
2023-03-12T15:42:24.852Z,5.42
2023-03-12T15:45:25.726Z,5.33
2023-03-12T15:47:57.438Z,5.26
2023-03-12T15:50:33.817Z,5.18
2023-03-12T15:53:25.976Z,5.10
2023-03-12T15:56:23.707Z,5.03
2023-03-12T15:59:26.112Z,4.96
2023-03-12T16:02:34.297Z,4.90
2023-03-12T16:05:10.593Z,4.88
2023-03-12T16:07:41.352Z,4.89
2023-03-12T16:10:37.700Z,4.84
2023-03-12T16:13:16.755Z,4.76
2023-03-12T16:15:47.760Z,4.71
2023-03-12T16:18:38.017Z,4.66
2023-03-12T16:21:06.666Z,4.62
2023-03-12T16:23:37.999Z,4.59
2023-03-12T16:26:13.841Z,4.56
2023-03-12T16:28:45.701Z,4.52
2023-03-12T16:31:19.780Z,4.47
2023-03-12T16:33:50.789Z,4.43
2023-03-12T16:36:19.272Z,4.38
2023-03-12T16:38:49.718Z,4.31
2023-03-12T16:41:19.857Z,4.25
2023-03-12T16:43:51.514Z,4.18
2023-03-12T16:46:24.295Z,4.13
2023-03-12T16:49:16.977Z,4.07
2023-03-12T16:51:49.674Z,4.02
2023-03-12T16:54:17.784Z,3.99
2023-03-12T16:57:09.118Z,3.96
2023-03-12T16:59:44.597Z,3.95
2023-03-12T17:02:22.148Z,3.94
2023-03-12T17:04:51.193Z,3.93
2023-03-12T17:07:30.031Z,3.92
2023-03-12T17:09:58.389Z,3.91
2023-03-12T17:12:38.934Z,3.90
2023-03-12T17:15:33.558Z,3.88
2023-03-12T17:18:04.869Z,3.87
2023-03-12T17:20:36.194Z,3.85
2023-03-12T17:23:06.040Z,3.84
2023-03-12T17:25:41.154Z,3.84
2023-03-12T17:28:15.606Z,3.83
2023-03-12T17:30:54.577Z,3.80
2023-03-12T17:33:25.916Z,3.78
2023-03-12T17:36:20.572Z,3.76
2023-03-12T17:38:53.733Z,3.72
2023-03-12T17:41:26.773Z,3.70
2023-03-12T17:44:18.802Z,3.67
2023-03-12T17:47:07.023Z,3.65
2023-03-12T17:49:38.951Z,3.62
2023-03-12T17:52:07.938Z,3.59
2023-03-12T17:54:42.264Z,3.56
2023-03-12T17:57:11.077Z,3.52
2023-03-12T17:59:42.344Z,3.48
2023-03-12T18:02:18.704Z,3.44
2023-03-12T18:04:50.598Z,3.40
2023-03-12T18:07:21.821Z,3.37
2023-03-12T18:09:49.789Z,3.34
2023-03-12T18:12:18.023Z,3.31
2023-03-12T18:14:45.893Z,3.28
2023-03-12T18:17:13.764Z,3.27
2023-03-12T18:19:41.998Z,3.26
2023-03-12T18:22:14.218Z,3.26
2023-03-12T18:24:42.571Z,3.25
2023-03-12T18:27:10.477Z,3.26
2023-03-12T18:29:40.613Z,3.26
2023-03-12T18:32:09.210Z,3.27
2023-03-12T18:34:42.392Z,3.27
2023-03-12T18:37:13.531Z,3.27
2023-03-12T18:39:54.646Z,3.28
2023-03-12T18:42:45.070Z,3.30
2023-03-12T18:45:16.572Z,3.34
2023-03-12T18:47:50.864Z,3.38
2023-03-12T18:50:21.916Z,3.44
2023-03-12T18:53:10.179Z,3.52
2023-03-12T18:55:38.607Z,3.61
2023-03-12T18:58:09.556Z,3.68
2023-03-12T19:00:38.013Z,3.75
2023-03-12T19:03:05.977Z,3.82
2023-03-12T19:05:34.159Z,3.88
2023-03-12T19:08:08.666Z,3.92
2023-03-12T19:10:54.945Z,3.96
2023-03-12T19:13:52.963Z,3.99
2023-03-12T19:16:24.067Z,4.04
2023-03-12T19:19:09.577Z,4.08
2023-03-12T19:21:38.558Z,4.12
2023-03-12T19:24:06.651Z,4.15
2023-03-12T19:26:37.402Z,4.18
2023-03-12T19:30:06.521Z,4.22
2023-03-12T19:32:57.977Z,4.27
2023-03-12T19:35:26.988Z,4.31
2023-03-12T19:37:56.055Z,4.32
2023-03-12T19:40:30.195Z,4.32
2023-03-12T19:42:59.078Z,4.32
2023-03-12T19:45:33.872Z,4.32
2023-03-12T19:48:11.665Z,4.32
2023-03-12T19:50:40.764Z,4.33
2023-03-12T19:53:12.331Z,4.34
2023-03-12T19:55:41.150Z,4.35
2023-03-12T19:58:09.332Z,4.35
2023-03-12T20:00:37.378Z,4.36
2023-03-12T20:03:09.758Z,4.36
2023-03-12T20:05:38.245Z,4.35
2023-03-12T20:08:09.958Z,4.35
2023-03-12T20:10:59.481Z,4.35
2023-03-12T20:13:35.761Z,4.34
2023-03-12T20:16:05.225Z,4.34
2023-03-12T20:18:34.173Z,4.34
2023-03-12T20:21:03.095Z,4.34
2023-03-12T20:23:31.542Z,4.35
2023-03-12T20:25:59.770Z,4.34
2023-03-12T20:28:28.252Z,4.35
2023-03-12T20:30:57.714Z,4.36
2023-03-12T20:33:25.997Z,4.37
2023-03-12T20:35:56.255Z,4.38
2023-03-12T20:38:24.326Z,4.38
2023-03-12T20:40:55.229Z,4.38
2023-03-12T20:43:23.525Z,4.38
2023-03-12T20:45:54.330Z,4.38
2023-03-12T20:48:25.050Z,4.38
2023-03-12T20:50:55.753Z,4.37
2023-03-12T20:53:30.651Z,4.37
2023-03-12T20:56:01.571Z,4.36
2023-03-12T20:58:50.170Z,4.37
2023-03-12T21:01:18.491Z,4.37
2023-03-12T21:03:56.316Z,4.39
2023-03-12T21:06:33.605Z,4.40
2023-03-12T21:09:23.252Z,4.42
2023-03-12T21:11:51.323Z,4.43
2023-03-12T21:14:30.242Z,4.43
2023-03-12T21:17:01.184Z,4.43
2023-03-12T21:19:43.058Z,4.42
2023-03-12T21:22:21.770Z,4.45
2023-03-12T21:24:50.686Z,4.46
2023-03-12T21:27:18.958Z,4.48
2023-03-12T21:30:07.712Z,4.49
2023-03-12T21:32:36.253Z,4.50
2023-03-12T21:35:05.363Z,4.52
2023-03-12T21:37:37.356Z,4.54
2023-03-12T21:40:36.826Z,4.54
2023-03-12T21:43:14.211Z,4.57
2023-03-12T21:46:26.820Z,4.59
2023-03-12T21:49:48.166Z,4.62
2023-03-12T21:52:18.690Z,4.66
2023-03-12T21:54:57.343Z,4.68
2023-03-12T21:57:57.613Z,4.70
2023-03-12T22:00:26.131Z,4.69
2023-03-12T22:02:54.509Z,4.69
2023-03-12T22:05:26.481Z,4.69
2023-03-12T22:07:57.390Z,4.68
2023-03-12T22:10:36.280Z,4.69
2023-03-12T22:13:09.887Z,4.71
2023-03-12T22:15:48.221Z,4.72
2023-03-12T22:18:21.514Z,4.72
2023-03-12T22:21:43.064Z,4.71
2023-03-12T22:24:25.466Z,4.75
2023-03-12T22:27:09.581Z,4.79
2023-03-12T22:29:37.739Z,4.79
2023-03-12T22:32:43.145Z,4.80
2023-03-12T22:35:15.115Z,4.83
2023-03-12T22:38:05.929Z,4.83
2023-03-12T22:40:50.156Z,4.85
2023-03-12T22:43:39.197Z,4.86
2023-03-12T22:46:07.463Z,4.87
2023-03-12T22:49:06.679Z,4.89
2023-03-12T22:52:18.684Z,4.93
2023-03-12T22:54:46.867Z,4.95
2023-03-12T22:58:16.088Z,4.96
2023-03-12T23:01:01.602Z,4.97
2023-03-12T23:03:34.725Z,4.96
2023-03-12T23:06:50.724Z,4.92
2023-03-12T23:09:39.586Z,4.86
2023-03-12T23:12:11.803Z,4.80
2023-03-12T23:15:43.571Z,4.77
2023-03-12T23:18:44.486Z,4.77
2023-03-12T23:21:59.110Z,4.81
2023-03-12T23:25:10.123Z,4.84
2023-03-12T23:28:18.755Z,4.83
2023-03-12T23:31:37.599Z,4.81
2023-03-12T23:34:09.931Z,4.76
2023-03-12T23:36:57.040Z,4.72
2023-03-12T23:39:53.512Z,4.69
2023-03-12T23:42:54.213Z,4.64
2023-03-12T23:45:34.447Z,4.60
2023-03-12T23:48:40.576Z,4.59
2023-03-12T23:51:12.615Z,4.63
2023-03-12T23:54:22.769Z,4.69
2023-03-12T23:57:05.184Z,4.80
